Aviation Digital Data Service (ADDS)

Output produced by TAFs form (0643 UTC 24 August 2016)
found at http://aviationweather.gov/adds/tafs/
 
KHOB 240602Z 2406/2506 15006KT P6SM OVC250 
     TEMPO 2406/2410 VRB15G25KT 3SM +TSRA FEW021 SCT030 BKN040CB 
     FM241600 18012G22KT P6SM SCT028 OVC250 
     FM250100 16007KT P6SM BKN200